logo
Search for airport 
image banner adimage banner adimage banner ad
image banner ad

LSZF - Birrfeld

Located in Baden, Switzerland

ICAO - LSZF, IATA -

Data provided by Airmate  

General information

Coordinates: N47°26'36" E8°14'2"
Elevation is 1300 feet MSL.
Magnetic variation is 2.663° East
Rated:
View ratings:
[VIEW]
View others Airports in Aargau

Operational data

Special qualification required
Current time UTC:
Current local time:
Weather at : LSZH - Zurich ( 24 km )
METAR: LSZH 140050Z AUTO 15005KT CAVOK 11/08 Q1025 NOSIG
TAF: TAF LSZH 132325Z 1400/1506 VRB02KT CAVOK TX26/1415Z TN08/1404Z TN12/1504Z TEMPO 1412/1416 29008KT BECMG 1419/1421 9999 SCT070 TEMPO 1502/1506 25010KT SHRA FEW050TCU
View NOTAMs / SUP AIP / TFR affecting this airport [VIEW]
Communications frequencies: [VIEW]

Runways:

RWY identifierQFULength (ft)Width (ft)SurfaceLDA (ft)
0881°235666ASPH
26 G201498GRASS
26261°235666ASPH
08G81°00UNK
26G261°00UNK

Airport contact information

Address: Baden Switzerland

Other aviation service providers

Flight schools

Silver Goose Aviation Ltd.

Silver Goose Aviation Ltd.

Aviation club (not for profit)

Fluggruppe Chestenberg

Fluggruppe Chestenberg

Aeroclub Aargau/Fliegerschule Birrfeld Ag

Aeroclub Aargau/Fliegerschule Birrfeld Ag

Segelfluggruppe Lenzburg

Segelfluggruppe Lenzburg
rihaechler@bluewin.ch+41797867731
+41797867731

Satellite view of LSZF